Time;durP1;ratioP1;P1;durP2;ratioP2;P2;SDS_P1;SDS_P2;PMS_P1;PMS_P2;Temp;Humidity;BMP_temperature;BMP_pressure;BME280_temperature;BME280_humidity;BME280_pressure;Samples;Min_cycle;Max_cycle;Signal;HPM_P1;HPM_P2
2021/08/05 00:00:05;;;;;;;7.28;6.15;;;16.40;99.90;;;;;;5067958;28;20032;-54
2021/08/05 00:02:30;;;;;;;6.47;5.82;;;16.30;99.90;;;;;;5067935;28;20474;-54
2021/08/05 00:04:56;;;;;;;6.57;5.97;;;16.20;99.90;;;;;;5066023;28;20025;-54
2021/08/05 00:07:21;;;;;;;7.78;5.97;;;16.20;99.90;;;;;;5068047;28;20032;-55
2021/08/05 00:09:46;;;;;;;6.80;6.10;;;16.20;99.90;;;;;;5068106;28;20536;-55
2021/08/05 00:12:13;;;;;;;6.50;5.88;;;16.20;99.90;;;;;;5067680;28;20127;-53
2021/08/05 00:14:41;;;;;;;7.07;5.65;;;16.10;99.90;;;;;;5069468;28;20036;-54
2021/08/05 00:17:06;;;;;;;6.78;6.18;;;16.10;99.90;;;;;;5070951;28;20016;-55
2021/08/05 00:19:32;;;;;;;7.20;6.50;;;16.00;99.90;;;;;;5071403;28;20039;-54
2021/08/05 00:21:57;;;;;;;8.55;6.35;;;16.00;99.90;;;;;;5071298;28;20324;-54
2021/08/05 00:24:23;;;;;;;6.68;5.97;;;15.90;99.90;;;;;;5070571;28;20470;-54
2021/08/05 00:26:48;;;;;;;6.55;5.80;;;15.90;99.90;;;;;;5071118;28;20037;-54
2021/08/05 00:29:14;;;;;;;7.88;6.45;;;15.80;99.90;;;;;;5071189;28;20028;-54
2021/08/05 00:31:39;;;;;;;7.13;6.45;;;15.80;99.90;;;;;;5071190;28;20501;-54
2021/08/05 00:34:05;;;;;;;6.93;6.22;;;15.80;99.90;;;;;;5069029;28;20028;-54
2021/08/05 00:36:30;;;;;;;6.80;6.10;;;15.80;99.90;;;;;;5069653;28;20418;-54
2021/08/05 00:38:56;;;;;;;7.45;6.68;;;15.70;99.90;;;;;;5070835;28;20470;-54
2021/08/05 00:41:21;;;;;;;6.78;6.07;;;15.70;99.90;;;;;;5071334;28;20063;-54
2021/08/05 00:43:47;;;;;;;8.40;6.32;;;15.70;99.90;;;;;;5070139;28;20051;-54
2021/08/05 00:46:12;;;;;;;8.07;6.45;;;15.60;99.90;;;;;;5069499;28;20104;-54
2021/08/05 00:48:38;;;;;;;7.97;6.95;;;15.60;99.90;;;;;;5069438;28;20037;-54
2021/08/05 00:51:03;;;;;;;8.35;7.10;;;15.60;99.90;;;;;;5070745;28;20569;-54
2021/08/05 00:53:29;;;;;;;8.10;6.65;;;15.60;99.90;;;;;;5070028;28;20038;-54
2021/08/05 00:55:55;;;;;;;7.50;6.63;;;15.60;99.90;;;;;;5070479;28;20029;-54
2021/08/05 00:58:21;;;;;;;7.25;6.57;;;15.60;99.90;;;;;;5070549;28;20489;-53
2021/08/05 01:00:53;;;;;;;8.23;6.28;;;15.60;99.90;;;;;;5070594;28;20042;-53
2021/08/05 01:03:32;;;;;;;6.93;6.32;;;15.60;99.90;;;;;;5070257;28;20059;-53
2021/08/05 01:06:27;;;;;;;7.18;6.40;;;15.60;99.90;;;;;;5070599;28;20433;-53
2021/08/05 01:09:02;;;;;;;8.63;6.47;;;15.60;99.90;;;;;;5070548;28;20027;-54
2021/08/05 01:11:34;;;;;;;8.07;7.00;;;15.50;99.90;;;;;;5070396;28;20028;-53
2021/08/05 01:14:04;;;;;;;7.78;7.00;;;15.50;99.90;;;;;;5069743;28;20055;-53
2021/08/05 01:16:31;;;;;;;7.68;6.88;;;15.50;99.90;;;;;;5070404;28;20070;-53
2021/08/05 01:19:17;;;;;;;8.38;7.10;;;15.50;99.90;;;;;;5070245;28;20033;-54
2021/08/05 01:22:01;;;;;;;9.02;7.15;;;15.50;99.90;;;;;;5070343;28;20355;-54
2021/08/05 01:24:31;;;;;;;8.68;7.13;;;15.50;99.90;;;;;;5069531;28;20020;-54
2021/08/05 01:27:00;;;;;;;8.15;7.35;;;15.40;99.90;;;;;;5069816;28;20029;-53
2021/08/05 01:29:26;;;;;;;9.02;7.53;;;15.40;99.90;;;;;;5070058;28;20107;-54
2021/08/05 01:31:53;;;;;;;9.20;7.57;;;15.40;99.90;;;;;;5070074;28;20119;-54
2021/08/05 01:34:21;;;;;;;10.18;7.32;;;15.40;99.90;;;;;;5069545;28;20047;-54
2021/08/05 01:36:48;;;;;;;10.38;7.63;;;15.50;99.90;;;;;;5069987;28;20130;-54
2021/08/05 01:39:14;;;;;;;9.05;7.78;;;15.50;99.90;;;;;;5070035;28;20056;-54
2021/08/05 01:41:41;;;;;;;10.50;8.07;;;15.50;99.90;;;;;;5070013;28;20352;-54
2021/08/05 01:44:09;;;;;;;8.35;7.35;;;15.50;99.90;;;;;;5069300;28;20042;-54
2021/08/05 01:46:35;;;;;;;9.98;7.55;;;15.50;99.90;;;;;;5070032;28;20025;-54
2021/08/05 01:49:02;;;;;;;8.75;7.47;;;15.50;99.90;;;;;;5070053;28;20036;-53
2021/08/05 01:51:28;;;;;;;8.35;7.18;;;15.50;99.90;;;;;;5068575;28;20025;-53
2021/08/05 01:53:54;;;;;;;9.40;7.75;;;15.50;99.90;;;;;;5069184;28;20028;-53
2021/08/05 01:56:24;;;;;;;7.88;7.07;;;15.40;99.90;;;;;;5069719;28;20078;-53
2021/08/05 01:58:51;;;;;;;8.50;7.60;;;15.40;99.90;;;;;;5069608;28;20024;-53
2021/08/05 02:01:17;;;;;;;8.02;7.22;;;15.40;99.90;;;;;;5068112;28;20024;-54
2021/08/05 02:04:08;;;;;;;7.80;7.00;;;15.40;99.90;;;;;;5068813;28;20017;-54
2021/08/05 02:06:38;;;;;;;9.63;7.78;;;15.30;99.90;;;;;;5069407;28;20024;-53
2021/08/05 02:09:21;;;;;;;11.07;7.88;;;15.40;99.90;;;;;;5069145;28;20040;-54
2021/08/05 02:11:50;;;;;;;8.57;7.70;;;15.40;99.90;;;;;;5069172;28;20041;-54
2021/08/05 02:14:19;;;;;;;9.15;8.23;;;15.40;99.90;;;;;;5068770;28;20295;-54
2021/08/05 02:16:45;;;;;;;8.60;7.70;;;15.30;99.90;;;;;;5068935;28;20021;-53
2021/08/05 02:19:13;;;;;;;9.32;7.63;;;15.30;99.90;;;;;;5069078;28;20028;-54
2021/08/05 02:21:41;;;;;;;8.30;7.40;;;15.20;99.90;;;;;;5068968;28;20522;-54
2021/08/05 02:24:08;;;;;;;10.43;7.72;;;15.20;99.90;;;;;;5068553;28;20048;-54
2021/08/05 02:26:34;;;;;;;8.52;7.63;;;15.20;99.90;;;;;;5069412;28;20139;-54
2021/08/05 02:29:00;;;;;;;9.38;7.85;;;15.20;99.90;;;;;;5069069;28;20024;-53
2021/08/05 02:31:26;;;;;;;10.57;9.48;;;15.30;99.90;;;;;;5068905;28;20036;-54
2021/08/05 02:33:51;;;;;;;9.18;7.80;;;15.20;99.90;;;;;;5068187;28;20032;-54
2021/08/05 02:36:17;;;;;;;10.95;8.18;;;15.20;99.90;;;;;;5068513;28;20024;-54
2021/08/05 02:38:43;;;;;;;9.02;8.13;;;15.20;99.90;;;;;;5067769;28;20031;-54
2021/08/05 02:41:09;;;;;;;10.27;8.35;;;15.20;99.90;;;;;;5068800;28;20103;-54
2021/08/05 02:43:36;;;;;;;8.77;7.90;;;15.30;99.90;;;;;;5068222;28;20036;-54
2021/08/05 02:46:04;;;;;;;8.27;7.45;;;15.20;99.90;;;;;;5068655;28;20188;-54
2021/08/05 02:48:33;;;;;;;9.52;8.30;;;15.20;99.90;;;;;;5068484;28;20026;-54
2021/08/05 02:51:00;;;;;;;9.55;8.27;;;15.20;99.90;;;;;;5068577;28;20137;-54
2021/08/05 02:53:27;;;;;;;9.80;7.95;;;15.20;99.90;;;;;;5067741;28;20032;-53
2021/08/05 02:55:52;;;;;;;11.05;8.98;;;15.20;99.90;;;;;;5068663;28;20025;-54
2021/08/05 02:58:18;;;;;;;9.95;8.48;;;15.20;99.90;;;;;;5068801;28;20107;-54
2021/08/05 03:00:44;;;;;;;10.23;7.85;;;15.20;99.90;;;;;;5068804;28;20074;-54
2021/08/05 03:03:11;;;;;;;9.52;8.52;;;15.20;99.90;;;;;;5068088;28;20028;-54
2021/08/05 03:05:37;;;;;;;9.15;8.15;;;15.10;99.90;;;;;;5068030;28;20028;-54
2021/08/05 03:08:02;;;;;;;10.25;7.82;;;15.20;99.90;;;;;;5068376;28;20033;-54
2021/08/05 03:10:28;;;;;;;9.10;8.20;;;15.10;99.90;;;;;;5068566;28;20378;-54
2021/08/05 03:12:53;;;;;;;9.90;8.75;;;15.20;99.90;;;;;;5068303;28;20028;-54
2021/08/05 03:15:19;;;;;;;9.05;8.13;;;15.20;99.90;;;;;;5067749;28;20035;-54
2021/08/05 03:17:44;;;;;;;8.30;7.38;;;15.10;99.90;;;;;;5068180;28;20024;-54
2021/08/05 03:20:15;;;;;;;12.18;8.10;;;15.10;99.90;;;;;;5068521;28;20017;-54
2021/08/05 03:22:41;;;;;;;9.25;7.78;;;15.10;99.90;;;;;;5067052;28;20141;-54
2021/08/05 03:25:07;;;;;;;8.20;7.40;;;15.10;99.90;;;;;;5067754;28;20032;-54
2021/08/05 03:27:33;;;;;;;9.68;8.60;;;15.10;99.90;;;;;;5068445;28;20025;-54
2021/08/05 03:29:58;;;;;;;9.70;7.95;;;15.10;99.90;;;;;;5068336;28;20386;-54
2021/08/05 03:32:23;;;;;;;9.93;7.85;;;15.10;99.90;;;;;;5068541;28;20126;-54
2021/08/05 03:34:49;;;;;;;9.70;7.32;;;15.10;99.90;;;;;;5067560;28;20028;-54
2021/08/05 03:37:14;;;;;;;8.60;7.68;;;15.10;99.90;;;;;;5068161;28;20033;-54
2021/08/05 03:39:40;;;;;;;10.57;7.78;;;15.10;99.90;;;;;;5068220;28;20024;-54
2021/08/05 03:42:05;;;;;;;9.30;8.02;;;15.00;99.90;;;;;;5068121;28;20031;-55
2021/08/05 03:44:31;;;;;;;9.10;7.70;;;15.00;99.90;;;;;;5067448;28;20177;-54
2021/08/05 03:46:56;;;;;;;10.75;8.43;;;15.00;99.90;;;;;;5068454;28;20107;-54
2021/08/05 03:49:22;;;;;;;8.75;7.95;;;15.00;99.90;;;;;;5070116;28;20020;-54
2021/08/05 03:51:47;;;;;;;8.07;7.13;;;14.90;99.90;;;;;;5072044;28;20039;-54
2021/08/05 03:54:13;;;;;;;8.63;6.75;;;14.90;99.90;;;;;;5071135;28;20036;-54
2021/08/05 03:56:38;;;;;;;8.48;7.68;;;14.90;99.90;;;;;;5071739;28;20033;-54
2021/08/05 03:59:04;;;;;;;8.80;7.90;;;14.80;99.90;;;;;;5071800;28;20543;-54
2021/08/05 04:01:29;;;;;;;10.13;8.10;;;14.80;99.90;;;;;;5070306;28;20028;-54
2021/08/05 04:03:54;;;;;;;9.43;7.97;;;14.80;99.90;;;;;;5071118;28;20086;-54
2021/08/05 04:06:21;;;;;;;9.27;8.27;;;14.80;99.90;;;;;;5071585;28;20043;-53
2021/08/05 04:08:46;;;;;;;14.40;7.68;;;14.80;99.90;;;;;;5070626;28;20021;-54
2021/08/05 04:11:12;;;;;;;9.68;8.32;;;14.80;99.90;;;;;;5071933;28;20386;-54
2021/08/05 04:13:37;;;;;;;10.07;8.73;;;14.80;99.90;;;;;;5070990;28;20444;-54
2021/08/05 04:16:03;;;;;;;8.90;7.43;;;14.80;99.90;;;;;;5072066;28;20032;-53
2021/08/05 04:18:28;;;;;;;9.07;8.18;;;14.80;99.90;;;;;;5071878;28;20159;-53
2021/08/05 04:20:54;;;;;;;11.80;8.02;;;14.80;99.90;;;;;;5071662;28;20024;-53
2021/08/05 04:23:19;;;;;;;8.18;7.30;;;14.80;99.90;;;;;;5070952;28;20020;-54
2021/08/05 04:25:45;;;;;;;10.00;8.43;;;14.90;99.90;;;;;;5070056;28;20103;-53
2021/08/05 04:28:11;;;;;;;10.43;8.02;;;14.80;99.90;;;;;;5071283;28;20028;-54
2021/08/05 04:30:37;;;;;;;7.90;7.10;;;14.80;99.90;;;;;;5071060;28;20435;-53
2021/08/05 04:33:02;;;;;;;10.13;7.88;;;14.90;99.90;;;;;;5071056;28;20303;-54
2021/08/05 04:35:28;;;;;;;10.10;8.52;;;14.90;99.90;;;;;;5070422;28;20025;-54
2021/08/05 04:37:56;;;;;;;10.30;8.70;;;14.90;99.90;;;;;;5070915;28;20025;-53
2021/08/05 04:40:23;;;;;;;10.02;8.52;;;15.00;99.90;;;;;;5071005;28;20021;-54
2021/08/05 04:42:49;;;;;;;8.45;7.53;;;15.00;99.90;;;;;;5070944;28;20401;-53
2021/08/05 04:45:15;;;;;;;11.93;8.43;;;15.00;99.90;;;;;;5070197;28;20449;-54
2021/08/05 04:48:02;;;;;;;8.80;7.70;;;15.00;99.90;;;;;;5071081;28;20038;-53
2021/08/05 04:50:31;;;;;;;8.77;7.75;;;15.10;99.90;;;;;;5070731;28;20035;-54
2021/08/05 04:52:59;;;;;;;10.68;8.20;;;15.00;99.90;;;;;;5070676;28;20133;-53
2021/08/05 04:55:25;;;;;;;12.18;9.05;;;15.10;99.90;;;;;;5069916;28;20024;-54
2021/08/05 04:57:56;;;;;;;9.00;7.97;;;15.20;99.90;;;;;;5069102;28;20241;-53
2021/08/05 05:00:27;;;;;;;9.35;7.50;;;15.20;99.90;;;;;;5070328;28;20021;-54
2021/08/05 05:02:53;;;;;;;;;;;15.30;99.90;;;;;;5071420;28;20308;-54
2021/08/05 05:05:19;;;;;;;10.27;8.15;;;15.30;99.90;;;;;;5070004;28;20354;-54
2021/08/05 05:07:44;;;;;;;8.73;7.13;;;15.40;99.90;;;;;;5070654;28;20043;-54
2021/08/05 05:10:12;;;;;;;10.07;7.85;;;15.40;99.90;;;;;;5069322;28;20037;-54
2021/08/05 05:12:38;;;;;;;8.13;6.70;;;15.50;99.90;;;;;;5070130;28;20036;-53
2021/08/05 05:15:04;;;;;;;9.05;7.60;;;15.50;99.90;;;;;;5069512;28;20028;-53
2021/08/05 05:17:30;;;;;;;6.90;6.20;;;15.50;99.90;;;;;;5070083;28;20083;-54
2021/08/05 05:19:56;;;;;;;6.88;6.18;;;15.60;99.90;;;;;;5070210;28;20183;-54
2021/08/05 05:22:21;;;;;;;8.68;7.10;;;15.70;99.90;;;;;;5068850;28;20382;-53
2021/08/05 05:24:47;;;;;;;7.43;6.68;;;15.70;99.90;;;;;;5069294;28;20020;-55
2021/08/05 05:30:35;;;;;;;7.38;5.97;;;15.80;99.90;;;;;;5070163;28;20159;-55
2021/08/05 05:33:01;;;;;;;8.43;7.25;;;15.80;99.90;;;;;;5070339;28;20656;-55
2021/08/05 05:35:27;;;;;;;7.72;6.35;;;15.80;99.90;;;;;;5069345;28;20055;-55
2021/08/05 05:37:54;;;;;;;11.52;6.65;;;15.90;99.90;;;;;;5069854;28;20503;-54
2021/08/05 05:40:20;;;;;;;7.40;6.47;;;16.00;99.90;;;;;;5070419;28;20378;-54
2021/08/05 05:42:46;;;;;;;10.25;6.72;;;16.10;99.90;;;;;;5069802;28;20812;-54
2021/08/05 05:45:14;;;;;;;7.63;6.78;;;16.10;99.90;;;;;;5069075;28;20039;-55
2021/08/05 05:47:40;;;;;;;7.30;6.15;;;16.20;99.90;;;;;;5069560;28;20122;-54
2021/08/05 05:50:08;;;;;;;8.50;6.40;;;16.30;99.90;;;;;;5069580;28;20028;-54
2021/08/05 05:52:33;;;;;;;8.30;6.72;;;16.40;99.90;;;;;;5069443;28;20025;-54
2021/08/05 05:54:59;;;;;;;7.90;6.63;;;16.50;99.90;;;;;;5068745;28;20054;-54
2021/08/05 05:57:24;;;;;;;7.75;6.38;;;16.60;99.90;;;;;;5068051;28;20271;-54
2021/08/05 05:59:50;;;;;;;6.07;5.45;;;16.70;99.90;;;;;;5069841;28;20025;-54
2021/08/05 06:02:15;;;;;;;7.35;6.47;;;16.80;99.90;;;;;;5069240;28;20078;-54
2021/08/05 06:04:41;;;;;;;8.85;7.32;;;16.90;99.90;;;;;;5068715;28;20099;-55
2021/08/05 06:07:06;;;;;;;8.57;6.50;;;17.00;99.90;;;;;;5069556;28;20190;-54
2021/08/05 06:09:32;;;;;;;8.25;6.35;;;17.10;99.90;;;;;;5069446;28;20040;-54
2021/08/05 06:11:57;;;;;;;8.90;5.90;;;17.20;99.90;;;;;;5068670;28;20028;-55
2021/08/05 06:14:23;;;;;;;6.35;5.75;;;17.30;99.90;;;;;;5068615;28;20036;-54
2021/08/05 06:16:48;;;;;;;6.13;5.53;;;17.40;99.90;;;;;;5068914;28;20489;-54
2021/08/05 06:19:14;;;;;;;7.47;5.93;;;17.50;99.90;;;;;;5069206;28;20123;-54
2021/08/05 06:21:39;;;;;;;11.68;6.22;;;17.70;99.90;;;;;;5069197;28;20394;-55
2021/08/05 06:24:05;;;;;;;6.57;5.78;;;17.90;99.90;;;;;;5068343;28;20031;-54
2021/08/05 06:26:30;;;;;;;11.32;7.05;;;18.00;99.90;;;;;;5068980;28;20028;-55
2021/08/05 06:28:56;;;;;;;12.05;6.07;;;18.20;99.90;;;;;;5067709;28;20040;-55
2021/08/05 06:31:22;;;;;;;7.53;6.22;;;18.40;99.90;;;;;;5069246;28;20107;-54
2021/08/05 06:33:51;;;;;;;8.60;7.00;;;18.50;99.90;;;;;;5068125;28;20055;-54
2021/08/05 06:36:17;;;;;;;6.75;5.82;;;18.70;99.90;;;;;;5068964;28;20383;-55
2021/08/05 06:38:43;;;;;;;7.65;6.47;;;18.80;99.90;;;;;;5067436;28;20021;-55
2021/08/05 06:41:08;;;;;;;7.97;6.65;;;18.80;99.90;;;;;;5068649;28;20032;-54
2021/08/05 06:43:34;;;;;;;8.07;6.90;;;19.00;99.90;;;;;;5068070;28;20382;-55
2021/08/05 06:45:59;;;;;;;10.20;6.68;;;19.00;99.90;;;;;;5068702;28;20371;-55
2021/08/05 06:48:25;;;;;;;12.07;7.10;;;19.00;99.90;;;;;;5068651;28;20314;-54
2021/08/05 06:50:50;;;;;;;10.63;7.75;;;19.00;99.90;;;;;;5067270;28;20497;-54
2021/08/05 06:53:16;;;;;;;7.88;6.70;;;19.10;99.90;;;;;;5068362;28;20020;-54
2021/08/05 06:55:42;;;;;;;9.20;7.78;;;19.20;99.90;;;;;;5068352;28;20020;-54
2021/08/05 06:58:07;;;;;;;7.53;6.80;;;19.20;99.90;;;;;;5068629;28;20440;-54
2021/08/05 07:00:33;;;;;;;10.05;8.07;;;19.10;99.90;;;;;;5068541;28;20429;-54
2021/08/05 07:02:58;;;;;;;8.40;6.80;;;19.10;99.90;;;;;;5068692;28;20489;-54
2021/08/05 07:05:24;;;;;;;9.07;8.18;;;19.20;99.90;;;;;;5068128;28;20024;-54
2021/08/05 07:07:50;;;;;;;9.65;6.95;;;19.20;99.90;;;;;;5068494;28;20253;-54
2021/08/05 07:10:16;;;;;;;7.75;7.05;;;19.30;99.90;;;;;;5068655;28;20398;-54
2021/08/05 07:12:42;;;;;;;9.13;6.85;;;19.40;99.90;;;;;;5068559;28;20051;-54
2021/08/05 07:15:08;;;;;;;10.00;7.00;;;19.40;99.90;;;;;;5067978;28;20043;-54
2021/08/05 07:17:33;;;;;;;9.27;6.30;;;19.50;99.90;;;;;;5068216;28;20029;-54
2021/08/05 07:19:59;;;;;;;7.88;6.15;;;19.60;99.90;;;;;;5068480;28;20066;-54
2021/08/05 07:22:24;;;;;;;7.88;7.07;;;19.60;99.90;;;;;;5068481;28;20028;-54
2021/08/05 07:24:50;;;;;;;11.20;7.45;;;19.70;99.90;;;;;;5070652;28;20055;-54
2021/08/05 07:27:15;;;;;;;7.88;7.03;;;19.60;99.90;;;;;;5072396;28;20035;-54
2021/08/05 07:29:41;;;;;;;10.13;6.82;;;19.70;99.90;;;;;;5072147;28;20033;-54
2021/08/05 07:32:07;;;;;;;7.53;6.30;;;19.80;99.90;;;;;;5072269;28;20032;-54
2021/08/05 07:34:33;;;;;;;9.93;7.47;;;19.90;99.90;;;;;;5071757;28;20028;-54
2021/08/05 07:36:59;;;;;;;7.50;6.60;;;19.90;99.90;;;;;;5072142;28;20397;-54
2021/08/05 07:39:25;;;;;;;7.60;6.45;;;20.00;99.90;;;;;;5072295;28;20028;-54
2021/08/05 07:41:50;;;;;;;7.97;6.85;;;20.20;99.90;;;;;;5072062;28;20025;-54
2021/08/05 07:44:16;;;;;;;9.40;6.82;;;20.30;99.90;;;;;;5071396;28;20017;-54
2021/08/05 07:46:43;;;;;;;8.70;7.03;;;20.40;99.90;;;;;;5072375;28;20029;-54
2021/08/05 07:49:11;;;;;;;9.55;6.38;;;20.60;99.90;;;;;;5071983;28;20016;-55
2021/08/05 07:51:37;;;;;;;7.75;6.05;;;20.70;99.90;;;;;;5072089;28;20056;-54
2021/08/05 07:54:03;;;;;;;8.13;6.68;;;20.90;99.90;;;;;;5071381;28;20020;-55
2021/08/05 07:56:29;;;;;;;8.63;6.22;;;21.00;99.90;;;;;;5072084;28;20089;-54
2021/08/05 07:58:54;;;;;;;7.35;6.32;;;21.20;99.90;;;;;;5072049;28;20025;-54
2021/08/05 08:01:20;;;;;;;12.75;6.25;;;21.30;99.90;;;;;;5071998;28;20054;-54
2021/08/05 08:03:45;;;;;;;8.02;6.50;;;21.30;99.90;;;;;;5070985;28;20028;-54
2021/08/05 08:06:11;;;;;;;6.85;6.13;;;21.50;99.90;;;;;;5071626;28;20028;-54
2021/08/05 08:08:36;;;;;;;8.57;6.18;;;21.90;99.90;;;;;;5071527;28;20043;-54
2021/08/05 08:11:02;;;;;;;9.02;7.05;;;22.20;99.90;;;;;;5071553;28;20043;-54
2021/08/05 08:13:28;;;;;;;6.03;5.43;;;22.60;99.90;;;;;;5070663;28;20036;-54
2021/08/05 08:15:54;;;;;;;6.00;5.40;;;23.00;99.90;;;;;;5071441;28;20028;-54
2021/08/05 08:18:20;;;;;;;7.13;5.63;;;23.50;99.90;;;;;;5071386;28;20394;-54
2021/08/05 08:20:46;;;;;;;6.38;5.72;;;23.90;99.70;;;;;;5071500;28;20378;-54
2021/08/05 08:23:12;;;;;;;7.40;5.28;;;24.30;98.80;;;;;;5071283;28;20039;-54
2021/08/05 08:25:38;;;;;;;6.57;5.32;;;24.50;98.20;;;;;;5071147;28;20035;-54
2021/08/05 08:28:04;;;;;;;5.97;5.38;;;24.90;96.90;;;;;;5071701;28;20099;-54
2021/08/05 08:30:29;;;;;;;9.85;5.38;;;25.10;96.50;;;;;;5071325;28;20043;-55
2021/08/05 08:32:55;;;;;;;8.23;5.35;;;25.30;96.20;;;;;;5071394;28;20039;-54
2021/08/05 08:35:21;;;;;;;5.47;4.85;;;25.50;94.60;;;;;;5070242;28;20175;-54
2021/08/05 08:37:46;;;;;;;5.97;5.30;;;25.50;93.60;;;;;;5071263;28;20528;-54
2021/08/05 08:40:14;;;;;;;6.88;5.43;;;25.70;93.50;;;;;;5071581;28;20314;-54
2021/08/05 08:42:41;;;;;;;8.07;5.55;;;25.90;92.90;;;;;;5071188;28;20425;-54
2021/08/05 08:45:12;;;;;;;6.07;5.22;;;25.60;92.20;;;;;;5070537;28;20016;-54
2021/08/05 08:47:39;;;;;;;8.32;5.75;;;25.70;92.40;;;;;;5070978;28;20024;-54
2021/08/05 08:50:06;;;;;;;7.03;5.10;;;25.70;92.10;;;;;;5069659;28;20085;-55
2021/08/05 08:52:35;;;;;;;6.05;5.40;;;25.50;92.00;;;;;;5070779;28;20033;-53
2021/08/05 08:55:03;;;;;;;7.85;5.50;;;25.40;92.80;;;;;;5070118;28;20024;-54
2021/08/05 08:57:31;;;;;;;5.90;5.13;;;25.30;92.70;;;;;;5070648;28;20382;-53
2021/08/05 08:59:58;;;;;;;5.53;4.93;;;25.20;93.30;;;;;;5070507;28;20028;-54
2021/08/05 09:02:23;;;;;;;5.90;5.30;;;25.40;93.10;;;;;;5070540;28;20639;-55
2021/08/05 09:04:50;;;;;;;5.93;5.18;;;25.20;92.50;;;;;;5069784;28;20035;-54
2021/08/05 09:07:15;;;;;;;7.72;5.28;;;25.10;92.80;;;;;;5070602;28;20062;-55
2021/08/05 09:09:41;;;;;;;6.30;5.70;;;24.90;92.70;;;;;;5070487;28;20028;-55
2021/08/05 09:12:13;;;;;;;7.22;5.32;;;24.90;92.70;;;;;;5070435;28;20505;-47
2021/08/05 09:14:42;;;;;;;8.40;5.68;;;24.80;92.70;;;;;;5069829;28;20025;-47
2021/08/05 09:17:20;;;;;;;6.00;5.33;;;24.80;93.30;;;;;;5070330;28;20031;-47
2021/08/05 09:19:47;;;;;;;7.10;5.43;;;24.90;93.10;;;;;;5070360;28;20032;-47
2021/08/05 09:22:39;;;;;;;9.82;5.97;;;25.00;92.40;;;;;;5070588;28;20024;-50
2021/08/05 09:25:31;;;;;;;8.82;5.90;;;25.10;92.00;;;;;;5069643;28;20482;-48
2021/08/05 09:28:14;;;;;;;8.40;5.50;;;25.10;91.90;;;;;;5070212;28;20393;-48
2021/08/05 09:30:41;;;;;;;5.88;5.05;;;25.10;91.50;;;;;;5070161;28;20043;-49
2021/08/05 09:33:16;;;;;;;7.88;5.20;;;25.00;91.90;;;;;;5069998;28;20028;-48
2021/08/05 09:35:43;;;;;;;5.65;5.15;;;25.50;91.40;;;;;;5068590;28;20433;-47
2021/08/05 09:38:26;;;;;;;7.85;5.78;;;25.60;91.10;;;;;;5070002;28;20020;-47
2021/08/05 09:41:08;;;;;;;6.93;4.68;;;25.80;90.90;;;;;;5070231;28;20024;-48
2021/08/05 09:43:35;;;;;;;5.82;5.15;;;26.40;90.70;;;;;;5069760;28;20074;-50
2021/08/05 09:46:00;;;;;;;5.85;4.82;;;27.20;89.60;;;;;;5069450;28;20021;-47
2021/08/05 09:48:43;;;;;;;5.10;4.60;;;28.00;86.90;;;;;;5069944;28;20021;-49
2021/08/05 09:51:14;;;;;;;6.80;4.20;;;29.00;83.40;;;;;;5070002;28;20034;-51
2021/08/05 09:53:53;;;;;;;5.63;4.38;;;30.00;79.40;;;;;;5069263;28;20059;-49
2021/08/05 09:56:19;;;;;;;8.05;4.30;;;30.40;74.30;;;;;;5069917;28;20025;-48
2021/08/05 09:58:45;;;;;;;5.55;5.03;;;30.40;74.90;;;;;;5069782;28;20024;-53
2021/08/05 10:01:10;;;;;;;5.53;4.25;;;29.80;72.90;;;;;;5069749;28;20025;-47
2021/08/05 10:03:36;;;;;;;6.55;4.82;;;30.10;73.30;;;;;;5069061;28;20111;-49
2021/08/05 10:06:03;;;;;;;8.27;4.15;;;30.10;73.30;;;;;;5069410;28;20124;-48
2021/08/05 10:08:36;;;;;;;6.05;4.30;;;30.00;73.00;;;;;;5069607;28;20086;-54
2021/08/05 10:11:03;;;;;;;5.97;4.90;;;29.70;73.10;;;;;;5069499;28;20035;-50
2021/08/05 10:13:34;;;;;;;4.60;3.97;;;29.70;71.80;;;;;;5068766;28;20099;-48
2021/08/05 10:16:01;;;;;;;7.50;4.65;;;29.50;73.10;;;;;;5068946;28;20025;-50
2021/08/05 10:18:29;;;;;;;5.43;4.80;;;29.30;73.10;;;;;;5069255;28;20063;-51
2021/08/05 10:20:56;;;;;;;4.90;4.22;;;29.60;72.80;;;;;;5069153;28;20402;-48
2021/08/05 10:23:23;;;;;;;4.82;4.18;;;29.90;71.10;;;;;;5068423;28;20185;-49
2021/08/05 10:25:48;;;;;;;5.22;4.18;;;30.20;70.40;;;;;;5068962;28;20054;-48
2021/08/05 10:28:15;;;;;;;8.25;4.03;;;31.10;69.20;;;;;;5069135;28;20107;-49
2021/08/05 10:30:41;;;;;;;4.45;4.03;;;31.90;67.20;;;;;;5069053;28;20034;-50
2021/08/05 10:33:08;;;;;;;6.85;4.25;;;33.00;64.20;;;;;;5068676;28;20035;-50
2021/08/05 10:35:34;;;;;;;3.63;3.33;;;34.00;61.10;;;;;;5068266;28;20031;-50
2021/08/05 10:38:00;;;;;;;3.75;3.45;;;34.30;58.30;;;;;;5068734;28;20031;-50
2021/08/05 10:40:26;;;;;;;4.45;3.47;;;34.00;58.30;;;;;;5068791;28;20027;-50
2021/08/05 10:42:55;;;;;;;5.30;3.85;;;33.40;57.60;;;;;;5068705;28;20044;-47
2021/08/05 10:45:21;;;;;;;3.95;3.13;;;32.40;59.40;;;;;;5067895;28;20077;-50
2021/08/05 10:47:48;;;;;;;6.15;4.00;;;31.90;59.40;;;;;;5066944;28;20056;-47
2021/08/05 10:50:16;;;;;;;4.20;3.13;;;31.50;58.80;;;;;;5068795;28;20024;-51
2021/08/05 10:52:47;;;;;;;3.42;3.13;;;31.30;59.70;;;;;;5068214;28;20509;-50
2021/08/05 10:55:16;;;;;;;5.15;4.15;;;31.80;58.40;;;;;;5067446;28;20028;-51
2021/08/05 10:57:43;;;;;;;5.20;4.00;;;31.80;58.20;;;;;;5068219;28;20027;-50
2021/08/05 11:00:13;;;;;;;5.70;4.13;;;31.20;58.20;;;;;;5068306;28;20025;-49
2021/08/05 11:02:55;;;;;;;;;;;30.10;59.70;;;;;;5068995;28;20055;-48
2021/08/05 11:05:23;;;;;;;3.72;3.25;;;30.90;59.50;;;;;;5068026;28;19908;-50
2021/08/05 11:07:50;;;;;;;3.50;3.20;;;32.00;60.20;;;;;;5068489;28;20073;-49
2021/08/05 11:10:19;;;;;;;3.58;3.28;;;32.30;58.50;;;;;;5068660;28;20029;-48
2021/08/05 11:12:48;;;;;;;6.32;3.70;;;31.50;59.70;;;;;;5068367;28;20270;-50
2021/08/05 11:15:21;;;;;;;3.65;3.35;;;30.80;60.00;;;;;;5067728;28;20100;-48
2021/08/05 11:18:02;;;;;;;5.13;3.38;;;30.50;61.90;;;;;;5067040;28;20028;-50
2021/08/05 11:20:28;;;;;;;4.57;3.78;;;30.80;60.80;;;;;;5068743;28;20413;-48
2021/08/05 11:22:53;;;;;;;5.15;4.15;;;30.30;60.50;;;;;;5067056;28;20285;-49
2021/08/05 11:25:20;;;;;;;4.85;4.22;;;30.10;60.90;;;;;;5067638;28;20023;-48
2021/08/05 11:28:22;;;;;;;4.88;3.88;;;29.70;61.70;;;;;;5067085;28;20431;-50
2021/08/05 11:30:50;;;;;;;3.95;3.55;;;29.00;63.90;;;;;;5068519;28;20691;-48
2021/08/05 11:33:41;;;;;;;4.20;3.80;;;28.30;64.80;;;;;;5067697;28;20532;-48
2021/08/05 11:36:30;;;;;;;6.78;4.30;;;27.70;66.20;;;;;;5068147;28;20020;-50
2021/08/05 11:39:20;;;;;;;6.43;3.88;;;27.30;65.90;;;;;;5068211;28;20073;-48
2021/08/05 11:41:54;;;;;;;3.92;3.53;;;26.90;67.40;;;;;;5068218;28;20227;-49
2021/08/05 11:44:31;;;;;;;7.28;3.97;;;26.60;65.00;;;;;;5067682;28;20045;-47
2021/08/05 11:47:06;;;;;;;5.90;4.32;;;26.20;67.40;;;;;;5068348;28;20021;-47
2021/08/05 11:49:43;;;;;;;4.63;4.18;;;26.00;68.50;;;;;;5068207;28;20033;-48
2021/08/05 11:52:26;;;;;;;5.63;4.43;;;25.80;68.50;;;;;;5068332;28;20031;-47
2021/08/05 11:55:13;;;;;;;6.85;3.95;;;25.60;68.40;;;;;;5067657;28;20028;-47
2021/08/05 11:57:47;;;;;;;4.20;3.80;;;25.60;68.10;;;;;;5068016;28;20029;-46
2021/08/05 12:00:16;;;;;;;4.45;3.33;;;25.50;67.70;;;;;;5068123;28;20070;-49
2021/08/05 12:02:42;;;;;;;7.40;3.75;;;25.50;68.50;;;;;;5067960;28;20048;-47
2021/08/05 12:05:08;;;;;;;4.10;3.75;;;25.50;69.50;;;;;;5067236;28;20424;-49
2021/08/05 12:07:39;;;;;;;5.50;4.60;;;25.30;68.50;;;;;;5068136;28;20539;-48
2021/08/05 12:10:11;;;;;;;3.92;3.63;;;25.40;69.10;;;;;;5069219;28;20035;-48
2021/08/05 12:12:44;;;;;;;4.38;3.97;;;25.50;69.40;;;;;;5071495;28;20028;-51
2021/08/05 12:15:18;;;;;;;4.55;3.65;;;25.50;67.00;;;;;;5070730;28;20066;-48
2021/08/05 12:17:45;;;;;;;5.57;3.95;;;25.50;66.90;;;;;;5071420;28;20024;-47
2021/08/05 12:20:15;;;;;;;5.80;3.90;;;25.30;67.50;;;;;;5070071;28;20021;-50
2021/08/05 12:22:43;;;;;;;4.50;4.07;;;25.40;67.70;;;;;;5071804;28;20103;-50
2021/08/05 12:25:23;;;;;;;4.07;3.65;;;25.40;69.70;;;;;;5071148;28;20360;-48
2021/08/05 12:28:04;;;;;;;4.78;4.00;;;25.30;69.90;;;;;;5071482;28;20025;-48
2021/08/05 12:30:38;;;;;;;4.78;3.85;;;25.20;69.70;;;;;;5071682;28;20025;-47
2021/08/05 12:33:10;;;;;;;6.63;3.97;;;25.10;69.80;;;;;;5071547;28;20055;-48
2021/08/05 12:35:36;;;;;;;3.97;3.60;;;25.10;71.00;;;;;;5069969;28;20396;-48
2021/08/05 12:38:08;;;;;;;4.63;3.75;;;25.00;71.30;;;;;;5071780;28;20039;-46
2021/08/05 12:40:36;;;;;;;6.53;3.63;;;24.80;70.70;;;;;;5070141;28;20021;-47
2021/08/05 12:43:03;;;;;;;4.70;3.75;;;24.70;73.40;;;;;;5071369;28;20063;-47
2021/08/05 12:45:34;;;;;;;7.78;4.78;;;24.60;77.30;;;;;;5070418;28;20044;-47
2021/08/05 12:48:01;;;;;;;6.88;4.72;;;24.20;83.10;;;;;;5070908;28;20116;-47
2021/08/05 12:50:27;;;;;;;4.88;4.28;;;24.10;83.80;;;;;;5070927;28;20044;-47
2021/08/05 12:52:53;;;;;;;6.90;5.43;;;23.70;84.50;;;;;;5070772;28;20071;-48